createdAt,value
2018-12-12T00:01:55.402Z,24.96
2018-12-12T00:04:21.857Z,24.90
2018-12-12T00:06:48.322Z,25.07
2018-12-12T00:09:14.680Z,24.99
2018-12-12T00:11:41.032Z,24.99
2018-12-12T00:14:07.440Z,25.04
2018-12-12T00:16:33.836Z,24.94
2018-12-12T00:19:00.164Z,24.91
2018-12-12T00:21:26.485Z,24.73
2018-12-12T00:23:52.813Z,24.90
2018-12-12T00:26:19.200Z,24.85
2018-12-12T00:28:45.596Z,24.79
2018-12-12T00:31:11.999Z,24.99
2018-12-12T00:33:38.354Z,25.02
2018-12-12T00:36:04.668Z,24.80
2018-12-12T00:38:31.031Z,25.06
2018-12-12T00:40:57.375Z,24.91
2018-12-12T00:43:23.823Z,24.99
2018-12-12T00:45:50.122Z,25.05
2018-12-12T00:48:16.464Z,25.01
2018-12-12T00:50:42.789Z,25.19
2018-12-12T00:53:09.164Z,25.19
2018-12-12T00:55:35.492Z,25.01
2018-12-12T00:58:01.821Z,25.12
2018-12-12T01:00:28.407Z,25.04
2018-12-12T01:02:54.750Z,24.54
2018-12-12T01:05:21.098Z,23.52
2018-12-12T01:07:47.533Z,23.18
2018-12-12T01:10:13.870Z,23.45
2018-12-12T01:12:40.205Z,23.58
2018-12-12T01:15:06.537Z,23.81
2018-12-12T01:17:35.082Z,23.93
2018-12-12T01:20:01.519Z,24.12
2018-12-12T01:22:27.815Z,24.09
2018-12-12T01:24:54.153Z,23.74
2018-12-12T01:27:20.676Z,24.12
2018-12-12T01:29:47.065Z,23.86
2018-12-12T01:32:13.407Z,23.72
2018-12-12T01:34:39.777Z,23.80
2018-12-12T01:37:06.104Z,23.83
2018-12-12T01:39:32.435Z,23.59
2018-12-12T01:41:58.768Z,23.71
2018-12-12T01:44:25.099Z,23.71
2018-12-12T01:46:51.425Z,23.66
2018-12-12T01:49:17.826Z,23.99
2018-12-12T01:51:44.254Z,23.68
2018-12-12T01:54:10.596Z,23.83
2018-12-12T01:56:36.925Z,23.82
2018-12-12T01:59:03.255Z,23.62
2018-12-12T02:01:29.603Z,23.75
2018-12-12T02:03:56.002Z,23.58
2018-12-12T02:06:22.346Z,23.84
2018-12-12T02:08:48.697Z,23.69
2018-12-12T02:11:15.039Z,23.10
2018-12-12T02:13:41.427Z,23.19
2018-12-12T02:16:07.763Z,23.01
2018-12-12T02:18:34.093Z,22.96
2018-12-12T02:21:00.509Z,22.99
2018-12-12T02:23:26.875Z,23.05
2018-12-12T02:25:53.273Z,23.15
2018-12-12T02:28:19.591Z,22.82
2018-12-12T02:30:45.938Z,22.76
2018-12-12T02:33:12.273Z,22.54
2018-12-12T02:35:38.614Z,22.52
2018-12-12T02:38:05.001Z,22.44
2018-12-12T02:40:31.356Z,22.27
2018-12-12T02:42:57.737Z,22.22
2018-12-12T02:45:24.069Z,22.25
2018-12-12T02:47:50.466Z,22.48
2018-12-12T02:50:16.794Z,22.35
2018-12-12T02:52:43.134Z,22.29
2018-12-12T02:55:09.515Z,22.42
2018-12-12T02:57:35.863Z,22.38
2018-12-12T03:00:02.279Z,22.38
2018-12-12T03:02:29.569Z,22.52
2018-12-12T03:04:55.920Z,22.35
2018-12-12T03:07:22.331Z,22.46
2018-12-12T03:09:48.725Z,22.61
2018-12-12T03:12:15.051Z,22.53
2018-12-12T03:14:41.391Z,22.52
2018-12-12T03:17:07.732Z,22.53
2018-12-12T03:19:34.115Z,22.68
2018-12-12T03:22:00.493Z,22.74
2018-12-12T03:24:26.815Z,22.92
2018-12-12T03:26:53.149Z,22.93
2018-12-12T03:29:19.506Z,22.93
2018-12-12T03:31:45.872Z,22.77
2018-12-12T03:34:12.201Z,23.03
2018-12-12T03:36:38.538Z,22.93
2018-12-12T03:39:04.875Z,23.03
2018-12-12T03:41:31.245Z,23.13
2018-12-12T03:43:57.573Z,22.95
2018-12-12T03:46:23.970Z,23.21
2018-12-12T03:48:50.261Z,23.18
2018-12-12T03:51:16.615Z,23.25
2018-12-12T03:53:42.967Z,23.44
2018-12-12T03:56:09.298Z,23.52
2018-12-12T03:58:35.629Z,23.65
2018-12-12T04:01:01.972Z,23.78
2018-12-12T04:03:28.352Z,23.92
2018-12-12T04:05:54.650Z,23.72
2018-12-12T04:08:21.021Z,23.94
2018-12-12T04:10:47.355Z,23.87
2018-12-12T04:13:13.698Z,23.87
2018-12-12T04:15:40.035Z,23.99
2018-12-12T04:18:06.368Z,24.11
2018-12-12T04:20:32.696Z,24.02
2018-12-12T04:22:59.027Z,24.00
2018-12-12T04:25:25.419Z,24.10
2018-12-12T04:27:51.793Z,24.11
2018-12-12T04:30:18.183Z,24.19
2018-12-12T04:32:44.525Z,24.09
2018-12-12T04:35:10.845Z,23.99
2018-12-12T04:37:37.207Z,24.08
2018-12-12T04:40:03.616Z,24.06
2018-12-12T04:42:29.874Z,23.95
2018-12-12T04:44:56.215Z,24.02
2018-12-12T04:47:22.549Z,24.00
2018-12-12T04:49:49.163Z,24.01
2018-12-12T04:52:15.573Z,23.96
2018-12-12T04:54:41.861Z,24.07
2018-12-12T04:57:08.191Z,23.96
2018-12-12T04:59:34.569Z,23.91
2018-12-12T05:02:00.857Z,24.11
2018-12-12T05:04:27.273Z,23.80
2018-12-12T05:06:55.994Z,23.86
2018-12-12T05:09:19.955Z,23.77
2018-12-12T05:11:46.251Z,23.76
2018-12-12T05:14:12.588Z,23.76
2018-12-12T05:16:39.007Z,23.81
2018-12-12T05:19:05.331Z,23.81
2018-12-12T05:21:31.662Z,23.74
2018-12-12T05:23:58.006Z,23.91
2018-12-12T05:26:24.347Z,23.81
2018-12-12T05:28:50.692Z,23.71
2018-12-12T05:31:17.025Z,23.76
2018-12-12T05:33:43.365Z,23.56
2018-12-12T05:36:09.708Z,23.68
2018-12-12T05:38:36.031Z,23.43
2018-12-12T05:41:02.416Z,23.52
2018-12-12T05:43:28.749Z,23.41
2018-12-12T05:45:55.093Z,23.38
2018-12-12T05:48:21.475Z,23.40
2018-12-12T05:50:47.817Z,24.03
2018-12-12T05:53:14.240Z,24.36
2018-12-12T05:55:40.593Z,23.91
2018-12-12T05:58:06.983Z,23.97
2018-12-12T06:00:33.316Z,23.80
2018-12-12T06:02:59.642Z,24.03
2018-12-12T06:05:26.025Z,24.25
2018-12-12T06:07:52.448Z,23.90
2018-12-12T06:10:18.735Z,24.01
2018-12-12T06:12:45.114Z,23.64
2018-12-12T06:15:11.442Z,23.74
2018-12-12T06:17:37.777Z,23.35
2018-12-12T06:20:04.105Z,24.16
2018-12-12T06:22:30.454Z,24.25
2018-12-12T06:24:56.802Z,23.83
2018-12-12T06:27:23.167Z,24.12
2018-12-12T06:29:49.530Z,24.39
2018-12-12T06:32:15.874Z,24.36
2018-12-12T06:34:42.194Z,24.12
2018-12-12T06:37:08.530Z,24.13
2018-12-12T06:39:34.860Z,24.14
2018-12-12T06:42:05.359Z,23.93
2018-12-12T06:44:31.690Z,23.49
2018-12-12T06:46:58.027Z,23.06
2018-12-12T06:49:24.373Z,22.95
2018-12-12T06:51:50.714Z,23.09
2018-12-12T06:54:18.974Z,23.03
2018-12-12T06:56:45.316Z,23.38
2018-12-12T06:59:11.662Z,24.00
2018-12-12T07:01:38.052Z,23.69
2018-12-12T07:04:04.495Z,23.65
2018-12-12T07:06:30.901Z,22.74
2018-12-12T07:08:57.216Z,23.52
2018-12-12T07:11:23.617Z,22.21
2018-12-12T07:13:50.383Z,22.84
2018-12-12T07:16:16.706Z,23.92
2018-12-12T07:18:43.051Z,23.10
2018-12-12T07:21:09.381Z,23.20
2018-12-12T07:23:36.279Z,23.40
2018-12-12T07:26:03.658Z,23.26
2018-12-12T07:28:30.020Z,23.04
2018-12-12T07:30:56.371Z,23.89
2018-12-12T07:33:22.868Z,22.84
2018-12-12T07:35:49.569Z,22.97
2018-12-12T07:38:15.898Z,22.64
2018-12-12T07:40:42.277Z,22.79
2018-12-12T07:43:08.608Z,22.59
2018-12-12T07:45:35.079Z,22.19
2018-12-12T07:48:01.728Z,22.52
2018-12-12T07:50:27.816Z,21.97
2018-12-12T07:52:54.203Z,22.06
2018-12-12T07:55:20.583Z,22.78
2018-12-12T07:57:47.270Z,22.16
2018-12-12T08:00:13.773Z,22.83
2018-12-12T08:02:40.140Z,22.69
2018-12-12T08:05:06.507Z,22.58
2018-12-12T08:07:32.841Z,22.71
2018-12-12T08:09:59.325Z,23.32
2018-12-12T08:12:25.654Z,22.31
2018-12-12T08:14:52.065Z,22.94
2018-12-12T08:17:18.469Z,22.50
2018-12-12T08:19:45.112Z,23.73
2018-12-12T08:22:11.487Z,22.43
2018-12-12T08:24:37.846Z,22.47
2018-12-12T08:27:05.067Z,22.84
2018-12-12T08:29:31.533Z,23.09
2018-12-12T08:32:00.109Z,22.57
2018-12-12T08:34:26.467Z,22.66
2018-12-12T08:36:52.831Z,23.03
2018-12-12T08:39:19.206Z,22.77
2018-12-12T08:41:46.621Z,22.59
2018-12-12T08:44:12.948Z,22.13
2018-12-12T08:46:39.471Z,23.09
2018-12-12T08:49:05.863Z,22.80
2018-12-12T08:51:33.407Z,22.73
2018-12-12T08:53:59.847Z,22.93
2018-12-12T08:56:28.190Z,22.35
2018-12-12T08:58:54.622Z,22.45
2018-12-12T09:01:21.060Z,22.70
2018-12-12T09:03:47.896Z,22.67
2018-12-12T09:06:16.448Z,22.81
2018-12-12T09:08:42.947Z,22.66
2018-12-12T09:11:09.316Z,22.55
2018-12-12T09:13:35.663Z,22.33
2018-12-12T09:16:02.047Z,22.44
2018-12-12T09:18:28.455Z,22.86
2018-12-12T09:20:54.894Z,22.51
2018-12-12T09:23:21.253Z,22.16
2018-12-12T09:25:47.610Z,22.20
2018-12-12T09:28:13.988Z,22.07
2018-12-12T09:30:40.346Z,22.51
2018-12-12T09:33:06.694Z,22.14
2018-12-12T09:35:33.182Z,22.00
2018-12-12T09:37:59.526Z,22.85
2018-12-12T09:40:25.923Z,22.55
2018-12-12T09:42:52.260Z,22.01
2018-12-12T09:45:21.678Z,21.83
2018-12-12T09:47:45.005Z,21.83
2018-12-12T09:50:11.392Z,20.84
2018-12-12T09:52:37.820Z,21.35
2018-12-12T09:55:04.225Z,21.12
2018-12-12T09:57:30.620Z,21.42
2018-12-12T09:59:57.055Z,21.22
2018-12-12T10:02:23.390Z,21.29
2018-12-12T10:04:49.779Z,20.42
2018-12-12T10:07:16.120Z,20.67
2018-12-12T10:09:42.470Z,21.17
2018-12-12T10:12:08.962Z,21.28
2018-12-12T10:14:35.344Z,21.66
2018-12-12T10:17:01.729Z,21.76
2018-12-12T10:19:28.076Z,21.65
2018-12-12T10:21:54.510Z,21.95
2018-12-12T10:24:20.804Z,21.35
2018-12-12T10:26:47.164Z,21.47
2018-12-12T10:29:13.498Z,21.36
2018-12-12T10:31:40.026Z,21.50
2018-12-12T10:34:06.811Z,22.02
2018-12-12T10:36:33.406Z,21.35
2018-12-12T10:38:59.746Z,21.33
2018-12-12T10:41:26.381Z,21.53
2018-12-12T10:43:52.752Z,20.67
2018-12-12T10:46:19.145Z,20.68
2018-12-12T10:48:45.550Z,20.62
2018-12-12T10:51:11.894Z,21.02
2018-12-12T10:53:38.375Z,20.83
2018-12-12T10:56:04.879Z,20.91
2018-12-12T10:58:31.161Z,21.20
2018-12-12T11:00:57.623Z,20.68
2018-12-12T11:03:23.983Z,20.43
2018-12-12T11:05:50.331Z,19.91
2018-12-12T11:08:16.830Z,20.44
2018-12-12T11:10:43.238Z,20.50
2018-12-12T11:13:09.596Z,20.10
2018-12-12T11:15:35.969Z,20.03
2018-12-12T11:18:02.314Z,20.23
2018-12-12T11:20:28.708Z,20.04
2018-12-12T11:22:57.309Z,20.49
2018-12-12T11:25:23.707Z,20.17
2018-12-12T11:27:50.037Z,20.29
2018-12-12T11:30:16.368Z,20.10
2018-12-12T11:32:43.048Z,19.94
2018-12-12T11:35:09.390Z,20.84
2018-12-12T11:37:36.870Z,20.39
2018-12-12T11:40:03.292Z,20.34
2018-12-12T11:42:29.609Z,20.62
2018-12-12T11:44:55.988Z,20.43
2018-12-12T11:47:22.319Z,20.18
2018-12-12T11:49:48.662Z,20.78
2018-12-12T11:52:15.094Z,20.00
2018-12-12T11:54:41.436Z,20.44
2018-12-12T11:57:10.154Z,20.78
2018-12-12T11:59:36.497Z,20.38
2018-12-12T12:02:05.062Z,20.66
2018-12-12T12:04:31.470Z,20.26
2018-12-12T12:06:57.825Z,20.35
2018-12-12T12:09:24.169Z,20.35
2018-12-12T12:11:50.539Z,20.42
2018-12-12T12:14:16.896Z,20.29
2018-12-12T12:16:44.360Z,19.97
2018-12-12T12:19:10.705Z,20.20
2018-12-12T12:21:37.091Z,20.22
2018-12-12T12:24:03.463Z,19.96
2018-12-12T12:26:29.934Z,20.11
2018-12-12T12:28:56.276Z,20.11
2018-12-12T12:31:22.607Z,20.00
2018-12-12T12:33:48.997Z,20.10
2018-12-12T12:36:15.403Z,20.31
2018-12-12T12:38:41.900Z,19.78
2018-12-12T12:41:08.332Z,19.82
2018-12-12T12:43:34.854Z,19.81
2018-12-12T12:46:01.218Z,20.20
2018-12-12T12:48:27.621Z,19.90
2018-12-12T12:50:54.592Z,19.93
2018-12-12T12:53:21.005Z,19.66
2018-12-12T12:55:47.342Z,20.22
2018-12-12T12:58:13.705Z,20.00
2018-12-12T13:00:40.110Z,19.48
2018-12-12T13:03:06.456Z,19.78
2018-12-12T13:05:32.793Z,20.01
2018-12-12T13:07:59.165Z,20.49
2018-12-12T13:10:25.552Z,20.52
2018-12-12T13:12:51.977Z,20.42
2018-12-12T13:15:18.310Z,20.15
2018-12-12T13:17:45.939Z,20.32
2018-12-12T13:20:13.413Z,20.16
2018-12-12T13:22:39.838Z,20.18
2018-12-12T13:25:06.186Z,20.19
2018-12-12T13:27:32.597Z,20.31
2018-12-12T13:29:58.924Z,20.35
2018-12-12T13:32:25.278Z,20.09
2018-12-12T13:34:51.661Z,19.86
2018-12-12T13:37:18.441Z,20.05
2018-12-12T13:39:44.860Z,20.18
2018-12-12T13:42:11.400Z,20.37
2018-12-12T13:44:38.210Z,20.11
2018-12-12T13:47:04.563Z,19.97
2018-12-12T13:49:31.923Z,19.65
2018-12-12T13:51:59.334Z,20.17
2018-12-12T13:54:26.220Z,20.05
2018-12-12T13:56:52.565Z,19.84
2018-12-12T13:59:19.007Z,19.94
2018-12-12T14:01:45.389Z,19.96
2018-12-12T14:04:11.795Z,20.30
2018-12-12T14:06:38.131Z,20.29
2018-12-12T14:09:04.462Z,20.22
2018-12-12T14:11:30.906Z,20.11
2018-12-12T14:13:57.274Z,20.11
2018-12-12T14:16:23.741Z,20.42
2018-12-12T14:18:50.176Z,20.61
2018-12-12T14:21:16.686Z,20.72
2018-12-12T14:23:43.222Z,20.43
2018-12-12T14:26:09.788Z,20.59
2018-12-12T14:28:36.098Z,20.38
2018-12-12T14:31:02.484Z,20.64
2018-12-12T14:33:28.882Z,20.66
2018-12-12T14:36:00.930Z,21.05
2018-12-12T14:38:21.778Z,20.72
2018-12-12T14:40:48.222Z,20.79
2018-12-12T14:43:14.563Z,21.02
2018-12-12T14:45:40.943Z,20.64
2018-12-12T14:48:07.381Z,21.15
2018-12-12T14:50:33.721Z,20.84
2018-12-12T14:53:00.097Z,21.16
2018-12-12T14:55:26.456Z,21.39
2018-12-12T14:57:52.834Z,21.82
2018-12-12T15:00:19.419Z,21.14
2018-12-12T15:02:45.756Z,21.48
2018-12-12T15:05:12.197Z,21.47
2018-12-12T15:07:41.215Z,21.29
2018-12-12T15:10:07.574Z,21.34
2018-12-12T15:12:33.971Z,21.14
2018-12-12T15:15:00.676Z,21.42
2018-12-12T15:17:27.062Z,21.81
2018-12-12T15:19:53.518Z,22.46
2018-12-12T15:22:19.873Z,21.49
2018-12-12T15:24:46.263Z,21.36
2018-12-12T15:27:12.709Z,21.23
2018-12-12T15:29:39.095Z,21.42
2018-12-12T15:32:05.435Z,21.23
2018-12-12T15:34:31.820Z,21.19
2018-12-12T15:36:58.181Z,21.19
2018-12-12T15:39:24.674Z,21.03
2018-12-12T15:41:51.027Z,21.09
2018-12-12T15:44:17.359Z,21.18
2018-12-12T15:46:43.695Z,21.13
2018-12-12T15:49:10.015Z,21.35
2018-12-12T15:51:36.370Z,21.47
2018-12-12T15:54:02.760Z,20.74
2018-12-12T15:56:29.171Z,20.81
2018-12-12T15:58:55.781Z,20.74
2018-12-12T16:01:22.092Z,21.50
2018-12-12T16:03:48.441Z,20.55
2018-12-12T16:06:14.801Z,20.48
2018-12-12T16:08:41.293Z,20.13
2018-12-12T16:11:08.434Z,19.73
2018-12-12T16:13:33.999Z,19.66
2018-12-12T16:16:00.343Z,19.56
2018-12-12T16:18:26.779Z,19.34
2018-12-12T16:20:53.116Z,19.94
2018-12-12T16:23:19.459Z,19.93
2018-12-12T16:25:45.813Z,19.50
2018-12-12T16:28:12.221Z,19.42
2018-12-12T16:30:38.511Z,19.49
2018-12-12T16:33:04.901Z,19.52
2018-12-12T16:35:31.229Z,20.07
2018-12-12T16:37:57.630Z,20.24
2018-12-12T16:40:23.996Z,19.91
2018-12-12T16:42:50.341Z,20.35
2018-12-12T16:45:16.663Z,19.60
2018-12-12T16:47:43.213Z,19.79
2018-12-12T16:50:09.540Z,19.68
2018-12-12T16:52:35.931Z,19.62
2018-12-12T16:55:02.352Z,19.86
2018-12-12T16:57:28.700Z,20.03
2018-12-12T16:59:55.101Z,19.96
2018-12-12T17:02:21.448Z,19.84
2018-12-12T17:04:47.839Z,19.56
2018-12-12T17:07:14.438Z,19.60
2018-12-12T17:09:40.760Z,19.63
2018-12-12T17:12:07.143Z,19.65
2018-12-12T17:14:33.543Z,19.56
2018-12-12T17:17:00.031Z,19.65
2018-12-12T17:19:26.432Z,19.49
2018-12-12T17:21:52.778Z,19.68
2018-12-12T17:24:19.280Z,19.61
2018-12-12T17:26:45.655Z,19.52
2018-12-12T17:29:11.981Z,19.59
2018-12-12T17:31:38.438Z,19.66
2018-12-12T17:34:04.859Z,19.66
2018-12-12T17:36:31.239Z,19.68
2018-12-12T17:38:57.632Z,19.87
2018-12-12T17:41:24.175Z,19.77
2018-12-12T17:43:50.589Z,20.02
2018-12-12T17:46:17.031Z,20.10
2018-12-12T17:48:43.478Z,20.13
2018-12-12T17:51:09.997Z,20.12
2018-12-12T17:53:36.351Z,20.22
2018-12-12T17:56:02.782Z,20.33
2018-12-12T17:58:29.214Z,20.19
2018-12-12T18:00:55.669Z,20.18
2018-12-12T18:03:22.203Z,20.16
2018-12-12T18:05:48.869Z,20.71
2018-12-12T18:08:15.350Z,20.71
2018-12-12T18:10:41.758Z,20.82
2018-12-12T18:13:08.371Z,20.76
2018-12-12T18:15:34.867Z,20.31
2018-12-12T18:18:01.265Z,20.64
2018-12-12T18:20:27.994Z,20.68
2018-12-12T18:22:55.099Z,20.75
2018-12-12T18:25:21.671Z,20.64
2018-12-12T18:27:48.672Z,20.81
2018-12-12T18:30:15.502Z,20.71
2018-12-12T18:32:41.959Z,20.61
2018-12-12T18:35:08.487Z,20.61
2018-12-12T18:37:34.836Z,20.54
2018-12-12T18:40:01.208Z,20.66
2018-12-12T18:42:27.796Z,20.78
2018-12-12T18:44:54.129Z,20.84
2018-12-12T18:47:20.627Z,20.86
2018-12-12T18:49:47.029Z,20.97
2018-12-12T18:52:13.405Z,21.02
2018-12-12T18:54:39.829Z,21.07
2018-12-12T18:57:06.108Z,21.08
2018-12-12T18:59:32.589Z,21.10
2018-12-12T19:01:58.984Z,21.13
2018-12-12T19:04:25.275Z,21.17
2018-12-12T19:06:51.671Z,21.18
2018-12-12T19:09:18.030Z,21.26
2018-12-12T19:11:44.655Z,21.26
2018-12-12T19:14:10.983Z,21.26
2018-12-12T19:16:37.332Z,21.22
2018-12-12T19:19:03.709Z,21.29
2018-12-12T19:21:30.173Z,21.30
2018-12-12T19:23:56.617Z,21.32
2018-12-12T19:26:23.344Z,21.28
2018-12-12T19:28:49.370Z,21.27
2018-12-12T19:31:15.856Z,21.29
2018-12-12T19:33:42.234Z,21.30
2018-12-12T19:36:08.566Z,21.27
2018-12-12T19:38:34.951Z,21.29
2018-12-12T19:41:01.341Z,21.31
2018-12-12T19:43:27.700Z,21.26
2018-12-12T19:45:54.052Z,21.35
2018-12-12T19:48:20.381Z,21.32
2018-12-12T19:50:46.838Z,21.34
2018-12-12T19:53:13.161Z,21.50
2018-12-12T19:55:39.505Z,21.48
2018-12-12T19:58:05.839Z,21.45
2018-12-12T20:00:32.181Z,21.45
2018-12-12T20:02:58.527Z,21.48
2018-12-12T20:05:24.961Z,21.68
2018-12-12T20:07:51.275Z,21.80
2018-12-12T20:10:17.650Z,21.76
2018-12-12T20:12:44.009Z,21.95
2018-12-12T20:15:10.346Z,21.91
2018-12-12T20:17:36.723Z,21.95
2018-12-12T20:20:03.042Z,21.87
2018-12-12T20:22:29.394Z,21.97
2018-12-12T20:24:55.793Z,21.97
2018-12-12T20:27:22.135Z,22.41
2018-12-12T20:29:48.590Z,22.06
2018-12-12T20:32:14.892Z,22.20
2018-12-12T20:34:41.228Z,22.08
2018-12-12T20:37:07.748Z,22.15
2018-12-12T20:39:34.150Z,22.25
2018-12-12T20:42:00.478Z,22.23
2018-12-12T20:44:26.797Z,22.22
2018-12-12T20:46:53.128Z,22.19
2018-12-12T20:49:19.463Z,22.28
2018-12-12T20:51:45.808Z,22.26
2018-12-12T20:54:13.866Z,22.69
2018-12-12T20:56:38.667Z,22.44
2018-12-12T20:59:04.992Z,22.58
2018-12-12T21:01:31.331Z,22.33
2018-12-12T21:03:57.759Z,22.42
2018-12-12T21:06:24.094Z,22.40
2018-12-12T21:08:50.425Z,22.61
2018-12-12T21:11:16.799Z,22.51
2018-12-12T21:13:43.132Z,22.70
2018-12-12T21:16:09.512Z,22.65
2018-12-12T21:18:35.839Z,22.55
2018-12-12T21:21:02.171Z,22.72
2018-12-12T21:23:28.494Z,22.72
2018-12-12T21:25:54.888Z,22.67
2018-12-12T21:28:21.229Z,22.72
2018-12-12T21:30:47.574Z,22.70
2018-12-12T21:33:13.912Z,22.98
2018-12-12T21:35:40.231Z,23.00
2018-12-12T21:38:06.620Z,22.75
2018-12-12T21:40:32.972Z,23.03
2018-12-12T21:42:59.305Z,23.16
2018-12-12T21:45:25.684Z,23.29
2018-12-12T21:47:52.051Z,23.12
2018-12-12T21:50:18.378Z,23.38
2018-12-12T21:52:44.759Z,23.38
2018-12-12T21:55:11.060Z,23.40
2018-12-12T21:57:37.393Z,23.31
2018-12-12T22:00:03.741Z,23.49
2018-12-12T22:02:30.075Z,23.48
2018-12-12T22:04:56.406Z,23.34
2018-12-12T22:07:22.793Z,23.38
2018-12-12T22:09:49.164Z,23.48
2018-12-12T22:12:15.503Z,23.71
2018-12-12T22:14:41.889Z,23.54
2018-12-12T22:17:08.225Z,23.81
2018-12-12T22:19:34.613Z,23.71
2018-12-12T22:22:00.987Z,23.73
2018-12-12T22:24:27.311Z,23.67
2018-12-12T22:26:53.669Z,23.87
2018-12-12T22:29:20.012Z,23.74
2018-12-12T22:31:46.367Z,23.72
2018-12-12T22:34:12.697Z,23.87
2018-12-12T22:36:39.027Z,23.90
2018-12-12T22:39:05.412Z,24.19
2018-12-12T22:41:31.773Z,24.02
2018-12-12T22:43:58.087Z,24.16
2018-12-12T22:46:24.424Z,23.93
2018-12-12T22:48:50.755Z,24.14
2018-12-12T22:51:17.089Z,24.03
2018-12-12T22:53:43.488Z,24.15
2018-12-12T22:56:09.818Z,24.16
2018-12-12T22:58:36.145Z,24.22
2018-12-12T23:01:02.491Z,24.51
2018-12-12T23:03:28.823Z,24.41
2018-12-12T23:05:55.179Z,24.50
2018-12-12T23:08:21.510Z,24.36
2018-12-12T23:10:47.851Z,24.33
2018-12-12T23:13:14.181Z,24.23
2018-12-12T23:15:40.578Z,24.33
2018-12-12T23:18:06.927Z,24.43
2018-12-12T23:20:33.239Z,24.35
2018-12-12T23:22:59.599Z,24.45
2018-12-12T23:25:25.991Z,24.44
2018-12-12T23:27:52.319Z,24.44
2018-12-12T23:30:18.718Z,24.36
2018-12-12T23:32:44.986Z,24.30
2018-12-12T23:35:11.370Z,24.45
2018-12-12T23:37:37.695Z,24.33
2018-12-12T23:40:04.153Z,24.35
2018-12-12T23:42:30.535Z,24.38
2018-12-12T23:44:56.919Z,24.47
2018-12-12T23:47:23.250Z,24.31
2018-12-12T23:49:49.577Z,24.46
2018-12-12T23:52:15.911Z,24.35
2018-12-12T23:54:42.242Z,24.28
2018-12-12T23:57:08.623Z,24.63
2018-12-12T23:59:34.954Z,24.62
